createdAt,value
2022-12-24T00:01:22.969Z,10.83
2022-12-24T00:03:51.750Z,10.80
2022-12-24T00:06:21.211Z,10.20
2022-12-24T00:08:51.102Z,11.13
2022-12-24T00:11:19.813Z,10.20
2022-12-24T00:13:48.190Z,10.67
2022-12-24T00:16:16.596Z,11.33
2022-12-24T00:18:46.748Z,10.60
2022-12-24T00:21:15.717Z,11.20
2022-12-24T00:23:44.239Z,10.87
2022-12-24T00:26:14.195Z,11.20
2022-12-24T00:28:42.572Z,10.63
2022-12-24T00:31:11.864Z,10.83
2022-12-24T00:33:40.431Z,10.83
2022-12-24T00:36:09.513Z,10.90
2022-12-24T00:38:38.004Z,9.40
2022-12-24T00:41:24.173Z,10.10
2022-12-24T00:43:54.754Z,9.27
2022-12-24T00:46:23.482Z,9.67
2022-12-24T00:48:51.912Z,9.50
2022-12-24T00:51:20.852Z,9.73
2022-12-24T00:53:49.102Z,9.17
2022-12-24T00:56:17.488Z,9.70
2022-12-24T00:58:45.802Z,9.47
2022-12-24T01:01:15.824Z,9.90
2022-12-24T01:03:44.408Z,9.10
2022-12-24T01:06:13.231Z,10.37
2022-12-24T01:08:41.956Z,10.03
2022-12-24T01:11:11.371Z,10.47
2022-12-24T01:13:39.758Z,9.97
2022-12-24T01:16:16.329Z,10.30
2022-12-24T01:18:44.939Z,10.63
2022-12-24T01:21:13.340Z,12.30
2022-12-24T01:23:41.800Z,11.40
2022-12-24T01:26:12.165Z,10.90
2022-12-24T01:28:40.706Z,11.00
2022-12-24T01:31:12.803Z,11.57
2022-12-24T01:33:42.717Z,11.07
2022-12-24T01:36:11.411Z,10.37
2022-12-24T01:38:40.071Z,10.70
2022-12-24T01:41:26.602Z,10.17
2022-12-24T01:43:54.948Z,8.93
2022-12-24T01:46:27.704Z,9.13
2022-12-24T01:48:58.567Z,9.20
2022-12-24T01:51:31.055Z,7.43
2022-12-24T01:54:03.015Z,8.47
2022-12-24T01:56:32.251Z,8.30
2022-12-24T01:59:02.672Z,8.30
2022-12-24T02:01:31.179Z,6.83
2022-12-24T02:04:01.132Z,7.27
2022-12-24T02:06:29.483Z,8.17
2022-12-24T02:08:57.901Z,7.63
2022-12-24T02:11:26.258Z,8.77
2022-12-24T02:13:58.843Z,8.63
2022-12-24T02:16:36.991Z,8.60
2022-12-24T02:19:16.083Z,7.30
2022-12-24T02:21:53.144Z,7.73
2022-12-24T02:24:39.202Z,8.60
2022-12-24T02:27:22.531Z,6.83
2022-12-24T02:30:14.722Z,7.27
2022-12-24T02:32:49.862Z,6.63
2022-12-24T02:35:22.690Z,7.63
2022-12-24T02:37:56.963Z,8.40
2022-12-24T02:40:27.243Z,6.93
2022-12-24T02:42:57.067Z,7.33
2022-12-24T02:45:27.831Z,7.73
2022-12-24T02:47:57.958Z,7.87
2022-12-24T02:50:26.830Z,8.03
2022-12-24T02:52:55.338Z,7.40
2022-12-24T02:55:24.981Z,7.13
2022-12-24T02:58:00.460Z,6.93
2022-12-24T03:00:30.596Z,7.20
2022-12-24T03:03:08.721Z,8.33
2022-12-24T03:05:40.032Z,7.27
2022-12-24T03:08:12.945Z,7.07
2022-12-24T03:10:44.118Z,7.33
2022-12-24T03:13:15.046Z,7.27
2022-12-24T03:15:43.914Z,7.77
2022-12-24T03:18:14.818Z,6.93
2022-12-24T03:20:45.058Z,7.77
2022-12-24T03:23:14.674Z,8.07
2022-12-24T03:25:44.415Z,7.70
2022-12-24T03:28:14.234Z,8.10
2022-12-24T03:30:43.079Z,8.43
2022-12-24T03:33:11.601Z,7.50
2022-12-24T03:35:41.238Z,7.87
2022-12-24T03:38:09.587Z,7.83
2022-12-24T03:40:38.047Z,6.97
2022-12-24T03:43:06.354Z,7.43
2022-12-24T03:45:34.852Z,7.07
2022-12-24T03:48:03.243Z,7.47
2022-12-24T03:50:31.689Z,6.67
2022-12-24T03:53:01.434Z,8.07
2022-12-24T03:55:29.457Z,7.50
2022-12-24T03:57:57.809Z,6.20
2022-12-24T04:00:26.293Z,6.63
2022-12-24T04:02:55.279Z,7.57
2022-12-24T04:05:23.698Z,6.97
2022-12-24T04:07:52.089Z,6.80
2022-12-24T04:10:21.838Z,6.77
2022-12-24T04:12:49.862Z,6.77
2022-12-24T04:15:18.240Z,6.43
2022-12-24T04:17:46.558Z,6.90
2022-12-24T04:20:14.923Z,6.60
2022-12-24T04:22:43.253Z,6.17
2022-12-24T04:25:12.084Z,5.37
2022-12-24T04:27:41.508Z,7.00
2022-12-24T04:30:10.558Z,6.60
2022-12-24T04:32:38.913Z,7.37
2022-12-24T04:35:07.525Z,6.20
2022-12-24T04:37:36.126Z,6.27
2022-12-24T04:40:04.417Z,6.27
2022-12-24T04:42:32.879Z,6.93
2022-12-24T04:45:02.573Z,6.70
2022-12-24T04:47:31.041Z,6.97
2022-12-24T04:49:59.352Z,7.33
2022-12-24T04:52:27.657Z,6.83
2022-12-24T04:54:56.099Z,6.40
2022-12-24T04:57:24.410Z,7.37
2022-12-24T04:59:52.811Z,7.20
2022-12-24T05:02:22.656Z,7.97
2022-12-24T05:04:51.116Z,6.93
2022-12-24T05:07:19.488Z,7.27
2022-12-24T05:09:47.867Z,8.03
2022-12-24T05:12:16.312Z,6.90
2022-12-24T05:14:44.621Z,7.37
2022-12-24T05:17:13.131Z,7.00
2022-12-24T05:19:42.583Z,6.87
2022-12-24T05:22:27.389Z,6.73
2022-12-24T05:25:13.549Z,7.00
2022-12-24T05:27:46.069Z,5.10
2022-12-24T05:30:19.292Z,6.47
2022-12-24T05:32:47.656Z,6.67
2022-12-24T05:35:17.511Z,6.77
2022-12-24T05:37:45.912Z,5.77
2022-12-24T05:40:14.402Z,7.60
2022-12-24T05:42:42.759Z,6.73
2022-12-24T05:45:11.768Z,7.07
2022-12-24T05:47:43.387Z,6.07
2022-12-24T05:50:12.635Z,7.10
2022-12-24T05:52:42.366Z,6.77
2022-12-24T05:55:11.630Z,5.47
2022-12-24T05:57:41.470Z,7.23
2022-12-24T06:00:10.878Z,7.30
2022-12-24T06:02:39.455Z,6.33
2022-12-24T06:05:08.130Z,7.20
2022-12-24T06:07:36.700Z,7.03
2022-12-24T06:10:07.354Z,7.67
2022-12-24T06:12:35.761Z,7.23
2022-12-24T06:15:04.529Z,6.50
2022-12-24T06:17:32.836Z,7.53
2022-12-24T06:20:01.436Z,8.30
2022-12-24T06:22:29.802Z,7.43
2022-12-24T06:24:58.120Z,7.50
2022-12-24T06:27:27.944Z,6.80
2022-12-24T06:29:56.304Z,6.80
2022-12-24T06:32:24.689Z,6.87
2022-12-24T06:34:53.049Z,7.17
2022-12-24T06:37:22.233Z,7.40
2022-12-24T06:39:50.264Z,7.63
2022-12-24T06:42:18.649Z,7.30
2022-12-24T06:44:48.770Z,7.43
2022-12-24T06:47:17.113Z,7.53
2022-12-24T06:49:45.445Z,8.03
2022-12-24T06:52:13.845Z,7.77
2022-12-24T06:54:42.202Z,7.53
2022-12-24T06:57:10.227Z,7.63
2022-12-24T06:59:38.619Z,8.27
2022-12-24T07:02:08.250Z,8.50
2022-12-24T07:04:36.661Z,9.03
2022-12-24T07:07:05.041Z,8.17
2022-12-24T07:09:33.671Z,9.23
2022-12-24T07:12:02.094Z,8.83
2022-12-24T07:14:30.599Z,8.70
2022-12-24T07:16:59.564Z,9.47
2022-12-24T07:19:29.264Z,8.93
2022-12-24T07:21:57.648Z,9.67
2022-12-24T07:24:26.039Z,8.93
2022-12-24T07:26:54.367Z,8.80
2022-12-24T07:29:22.911Z,9.13
2022-12-24T07:31:51.287Z,9.03
2022-12-24T07:34:19.815Z,8.57
2022-12-24T07:36:49.286Z,8.80
2022-12-24T07:39:17.699Z,9.33
2022-12-24T07:41:46.064Z,8.77
2022-12-24T07:44:14.419Z,8.43
2022-12-24T07:46:42.928Z,8.40
2022-12-24T07:49:11.502Z,8.77
2022-12-24T07:51:40.236Z,8.53
2022-12-24T07:54:09.643Z,7.60
2022-12-24T07:56:38.092Z,7.63
2022-12-24T07:59:06.417Z,8.40
2022-12-24T08:01:34.916Z,7.87
2022-12-24T08:04:03.445Z,7.80
2022-12-24T08:06:31.866Z,8.23
2022-12-24T08:09:00.266Z,7.20
2022-12-24T08:11:29.662Z,8.37
2022-12-24T08:13:58.051Z,7.37
2022-12-24T08:16:26.395Z,7.37
2022-12-24T08:18:54.831Z,7.93
2022-12-24T08:21:23.277Z,7.63
2022-12-24T08:23:51.599Z,7.70
2022-12-24T08:26:19.969Z,6.97
2022-12-24T08:28:49.474Z,7.20
2022-12-24T08:31:17.877Z,7.00
2022-12-24T08:33:46.446Z,8.03
2022-12-24T08:36:14.479Z,7.70
2022-12-24T08:38:43.025Z,6.70
2022-12-24T08:41:11.386Z,7.97
2022-12-24T08:43:39.793Z,7.50
2022-12-24T08:46:09.560Z,6.37
2022-12-24T08:48:38.291Z,6.63
2022-12-24T08:51:08.837Z,7.07
2022-12-24T08:53:37.291Z,6.73
2022-12-24T08:56:06.580Z,6.80
2022-12-24T08:58:35.275Z,7.23
2022-12-24T09:01:03.852Z,7.50
2022-12-24T09:03:33.859Z,7.43
2022-12-24T09:06:04.732Z,7.57
2022-12-24T09:08:33.409Z,7.17
2022-12-24T09:11:04.639Z,7.30
2022-12-24T09:13:33.011Z,6.83
2022-12-24T09:16:01.165Z,8.60
2022-12-24T09:18:29.713Z,7.40
2022-12-24T09:21:03.129Z,7.43
2022-12-24T09:23:31.664Z,7.70
2022-12-24T09:26:00.111Z,6.17
2022-12-24T09:28:28.506Z,7.83
2022-12-24T09:30:58.267Z,7.53
2022-12-24T09:33:26.914Z,6.63
2022-12-24T09:35:55.488Z,6.60
2022-12-24T09:38:25.471Z,7.13
2022-12-24T09:40:55.419Z,7.63
2022-12-24T09:43:24.992Z,7.27
2022-12-24T09:46:00.402Z,7.17
2022-12-24T09:48:31.150Z,7.60
2022-12-24T09:51:03.361Z,8.70
2022-12-24T09:53:38.335Z,6.93
2022-12-24T09:56:13.031Z,6.30
2022-12-24T09:58:43.086Z,7.33
2022-12-24T10:01:14.228Z,7.20
2022-12-24T10:03:42.692Z,6.87
2022-12-24T10:06:16.312Z,7.70
2022-12-24T10:08:52.898Z,7.00
2022-12-24T10:11:23.718Z,6.80
2022-12-24T10:14:05.397Z,7.20
2022-12-24T10:16:37.874Z,8.00
2022-12-24T10:19:12.303Z,7.10
2022-12-24T10:21:51.858Z,7.53
2022-12-24T10:24:24.305Z,7.67
2022-12-24T10:26:55.350Z,7.77
2022-12-24T10:29:27.711Z,6.47
2022-12-24T10:31:58.951Z,7.90
2022-12-24T10:34:29.990Z,8.67
2022-12-24T10:36:59.021Z,7.97
2022-12-24T10:39:28.936Z,8.17
2022-12-24T10:41:59.146Z,9.77
2022-12-24T10:44:30.471Z,7.87
2022-12-24T10:46:59.502Z,7.87
2022-12-24T10:49:32.070Z,9.13
2022-12-24T10:52:04.647Z,8.80
2022-12-24T10:54:39.469Z,9.20
2022-12-24T10:57:24.470Z,8.67
2022-12-24T10:59:55.305Z,8.80
2022-12-24T11:02:29.591Z,8.97
2022-12-24T11:04:59.463Z,8.63
2022-12-24T11:07:28.632Z,9.23
2022-12-24T11:10:00.284Z,9.40
2022-12-24T11:12:32.183Z,8.10
2022-12-24T11:15:08.936Z,8.93
2022-12-24T11:17:37.704Z,7.83
2022-12-24T11:20:06.522Z,8.43
2022-12-24T11:22:35.192Z,8.63
2022-12-24T11:25:09.050Z,8.53
2022-12-24T11:27:45.942Z,8.80
2022-12-24T11:30:30.208Z,8.50
2022-12-24T11:33:18.880Z,9.03
2022-12-24T11:35:49.890Z,8.37
2022-12-24T11:38:22.582Z,8.33
2022-12-24T11:40:59.144Z,7.93
2022-12-24T11:43:44.311Z,8.03
2022-12-24T11:46:22.216Z,9.90
2022-12-24T11:48:50.831Z,8.33
2022-12-24T11:51:24.724Z,8.63
2022-12-24T11:54:02.014Z,8.63
2022-12-24T11:56:37.416Z,9.07
2022-12-24T11:59:16.722Z,9.13
2022-12-24T12:01:51.990Z,9.17
2022-12-24T12:04:23.386Z,8.37
2022-12-24T12:06:55.499Z,8.13
2022-12-24T12:09:28.500Z,8.87
2022-12-24T12:12:03.507Z,8.67
2022-12-24T12:14:36.597Z,9.13
2022-12-24T12:17:15.102Z,9.27
2022-12-24T12:19:46.302Z,9.93
2022-12-24T12:22:24.429Z,8.53
2022-12-24T12:24:55.892Z,8.83
2022-12-24T12:27:32.445Z,8.90
2022-12-24T12:30:03.299Z,7.60
2022-12-24T12:32:43.629Z,8.73
2022-12-24T12:35:18.275Z,8.67
2022-12-24T12:37:48.099Z,9.37
2022-12-24T12:40:18.789Z,8.07
2022-12-24T12:42:58.242Z,8.80
2022-12-24T12:45:43.847Z,9.17
2022-12-24T12:48:43.795Z,8.13
2022-12-24T12:51:20.238Z,8.67
2022-12-24T12:54:07.012Z,8.27
2022-12-24T12:56:37.423Z,9.30
2022-12-24T12:59:13.791Z,9.53
2022-12-24T13:01:48.144Z,8.33
2022-12-24T13:04:54.420Z,7.77
2022-12-24T13:07:52.237Z,7.50
2022-12-24T13:10:55.906Z,7.83
2022-12-24T13:14:02.002Z,8.53
2022-12-24T13:16:50.329Z,10.33
2022-12-24T13:19:37.860Z,8.33
2022-12-24T13:22:15.248Z,9.57
2022-12-24T13:24:51.770Z,9.20
2022-12-24T13:27:24.525Z,9.47
2022-12-24T13:29:59.968Z,8.47
2022-12-24T13:32:49.744Z,8.37
2022-12-24T13:35:38.722Z,7.43
2022-12-24T13:38:43.881Z,8.73
2022-12-24T13:41:49.988Z,8.80
2022-12-24T13:44:33.150Z,8.73
2022-12-24T13:47:25.526Z,9.17
2022-12-24T13:50:13.383Z,8.97
2022-12-24T13:52:52.632Z,8.63
2022-12-24T13:55:21.074Z,7.63
2022-12-24T13:57:57.890Z,7.70
2022-12-24T14:00:43.743Z,8.90
2022-12-24T14:03:28.503Z,8.23
2022-12-24T14:06:00.079Z,8.03
2022-12-24T14:08:36.347Z,7.43
2022-12-24T14:11:08.920Z,8.07
2022-12-24T14:14:09.440Z,8.07
2022-12-24T14:16:50.625Z,7.77
2022-12-24T14:19:22.449Z,7.43
2022-12-24T14:21:57.973Z,7.57
2022-12-24T14:24:28.866Z,8.20
2022-12-24T14:27:01.743Z,7.77
2022-12-24T14:29:32.844Z,10.10
2022-12-24T14:32:04.253Z,8.17
2022-12-24T14:34:33.226Z,8.10
2022-12-24T14:37:05.539Z,8.20
2022-12-24T14:39:36.907Z,7.10
2022-12-24T14:42:18.293Z,7.53
2022-12-24T14:44:53.843Z,7.30
2022-12-24T14:47:31.196Z,6.93
2022-12-24T14:50:21.834Z,6.73
2022-12-24T14:53:07.234Z,7.10
2022-12-24T14:55:41.216Z,6.40
2022-12-24T14:58:31.040Z,6.73
2022-12-24T15:01:00.260Z,5.80
2022-12-24T15:03:30.229Z,6.80
2022-12-24T15:05:59.832Z,6.53
2022-12-24T15:08:32.876Z,6.93
2022-12-24T15:11:04.293Z,6.23
2022-12-24T15:13:36.948Z,5.97
2022-12-24T15:16:08.947Z,6.17
2022-12-24T15:18:39.228Z,6.07
2022-12-24T15:21:14.410Z,5.93
2022-12-24T15:23:49.034Z,6.20
2022-12-24T15:26:25.117Z,5.67
2022-12-24T15:29:01.929Z,6.27
2022-12-24T15:31:31.869Z,5.37
2022-12-24T15:34:00.751Z,5.70
2022-12-24T15:36:32.525Z,5.90
2022-12-24T15:39:05.247Z,5.83
2022-12-24T15:41:59.885Z,6.17
2022-12-24T15:44:29.494Z,5.83
2022-12-24T15:47:00.377Z,6.77
2022-12-24T15:49:29.326Z,5.63
2022-12-24T15:52:05.271Z,6.10
2022-12-24T15:54:36.002Z,6.60
2022-12-24T15:57:15.381Z,6.33
2022-12-24T15:59:43.948Z,6.27
2022-12-24T16:02:39.445Z,6.23
2022-12-24T16:05:34.007Z,5.63
2022-12-24T16:08:21.289Z,5.97
2022-12-24T16:10:54.044Z,5.40
2022-12-24T16:13:24.748Z,6.47
2022-12-24T16:15:55.359Z,6.00
2022-12-24T16:18:26.912Z,6.17
2022-12-24T16:20:57.116Z,5.93
2022-12-24T16:23:27.980Z,6.23
2022-12-24T16:25:59.643Z,6.20
2022-12-24T16:28:28.153Z,5.70
2022-12-24T16:30:57.528Z,5.43
2022-12-24T16:33:26.305Z,5.57
2022-12-24T16:35:54.709Z,5.13
2022-12-24T16:38:23.099Z,5.43
2022-12-24T16:40:51.479Z,5.07
2022-12-24T16:43:39.036Z,5.07
2022-12-24T16:46:08.829Z,4.47
2022-12-24T16:48:38.796Z,5.37
2022-12-24T16:51:07.391Z,4.37
2022-12-24T16:53:35.461Z,4.53
2022-12-24T16:56:04.085Z,6.03
2022-12-24T16:58:33.521Z,5.40
2022-12-24T17:01:07.922Z,4.40
2022-12-24T17:03:37.105Z,4.37
2022-12-24T17:06:09.537Z,4.60
2022-12-24T17:08:38.157Z,4.40
2022-12-24T17:11:06.597Z,5.20
2022-12-24T17:13:36.387Z,5.07
2022-12-24T17:16:04.703Z,6.10
2022-12-24T17:18:33.143Z,5.80
2022-12-24T17:21:03.637Z,5.60
2022-12-24T17:23:32.044Z,7.13
2022-12-24T17:26:00.404Z,6.23
2022-12-24T17:28:28.814Z,6.70
2022-12-24T17:30:59.053Z,7.33
2022-12-24T17:33:27.550Z,8.13
2022-12-24T17:35:55.861Z,6.20
2022-12-24T17:38:24.256Z,5.87
2022-12-24T17:40:52.625Z,4.50
2022-12-24T17:43:21.041Z,5.43
2022-12-24T17:45:49.521Z,4.37
2022-12-24T17:48:19.016Z,4.70
2022-12-24T17:50:47.424Z,5.13
2022-12-24T17:53:15.845Z,5.17
2022-12-24T17:55:44.606Z,5.77
2022-12-24T17:58:15.040Z,5.73
2022-12-24T18:00:43.438Z,4.70
2022-12-24T18:03:14.472Z,5.83
2022-12-24T18:05:44.328Z,4.67
2022-12-24T18:08:13.003Z,8.90
2022-12-24T18:10:41.381Z,7.50
2022-12-24T18:13:15.487Z,7.57
2022-12-24T18:15:47.325Z,6.13
2022-12-24T18:18:15.711Z,5.00
2022-12-24T18:20:47.051Z,6.87
2022-12-24T18:23:16.698Z,5.37
2022-12-24T18:25:45.043Z,4.93
2022-12-24T18:28:13.388Z,5.63
2022-12-24T18:30:41.731Z,5.63
2022-12-24T18:33:10.051Z,5.00
2022-12-24T18:35:38.457Z,5.70
2022-12-24T18:38:08.216Z,5.37
2022-12-24T18:40:38.356Z,5.10
2022-12-24T18:43:06.364Z,10.80
2022-12-24T18:45:34.812Z,8.93
2022-12-24T18:48:03.287Z,11.10
2022-12-24T18:50:31.641Z,11.43
2022-12-24T18:52:59.985Z,9.00
2022-12-24T18:55:29.688Z,7.70
2022-12-24T18:57:58.070Z,6.57
2022-12-24T19:00:26.522Z,9.50
2022-12-24T19:02:55.014Z,6.50
2022-12-24T19:05:23.639Z,4.63
2022-12-24T19:07:52.135Z,7.30
2022-12-24T19:10:20.874Z,6.93
2022-12-24T19:12:50.702Z,5.10
2022-12-24T19:15:19.214Z,5.57
2022-12-24T19:17:47.548Z,6.40
2022-12-24T19:20:16.033Z,12.27
2022-12-24T19:22:44.420Z,11.63
2022-12-24T19:25:12.905Z,13.23
2022-12-24T19:27:41.534Z,9.20
2022-12-24T19:30:12.049Z,10.70
2022-12-24T19:32:40.405Z,9.37
2022-12-24T19:35:09.316Z,8.03
2022-12-24T19:37:37.781Z,13.83
2022-12-24T19:40:07.884Z,8.93
2022-12-24T19:42:36.367Z,6.07
2022-12-24T19:45:04.806Z,7.33
2022-12-24T19:47:34.533Z,6.27
2022-12-24T19:50:02.859Z,7.50
2022-12-24T19:52:31.194Z,7.50
2022-12-24T19:54:59.554Z,7.80
2022-12-24T19:57:28.144Z,7.30
2022-12-24T19:59:56.534Z,7.20
2022-12-24T20:02:25.486Z,7.60
2022-12-24T20:04:55.473Z,6.17
2022-12-24T20:07:23.786Z,6.80
2022-12-24T20:09:52.151Z,6.10
2022-12-24T20:12:20.470Z,6.60
2022-12-24T20:14:48.846Z,6.57
2022-12-24T20:17:17.202Z,6.47
2022-12-24T20:19:45.502Z,6.93
2022-12-24T20:22:15.212Z,6.17
2022-12-24T20:24:43.578Z,5.87
2022-12-24T20:27:11.960Z,5.97
2022-12-24T20:29:40.612Z,5.37
2022-12-24T20:32:09.084Z,5.60
2022-12-24T20:34:37.597Z,5.47
2022-12-24T20:37:06.064Z,5.77
2022-12-24T20:39:35.501Z,6.23
2022-12-24T20:42:04.494Z,6.00
2022-12-24T20:44:32.810Z,6.40
2022-12-24T20:47:01.151Z,5.97
2022-12-24T20:49:29.891Z,6.90
2022-12-24T20:51:58.219Z,5.73
2022-12-24T20:54:26.531Z,5.30
2022-12-24T20:56:57.820Z,7.00
2022-12-24T20:59:27.370Z,6.70
2022-12-24T21:01:56.166Z,6.27
2022-12-24T21:04:24.821Z,6.07
2022-12-24T21:06:53.175Z,5.70
2022-12-24T21:09:21.658Z,6.13
2022-12-24T21:12:07.655Z,7.40
2022-12-24T21:14:37.114Z,6.87
2022-12-24T21:17:07.418Z,6.57
2022-12-24T21:19:39.047Z,7.43
2022-12-24T21:22:07.444Z,6.80
2022-12-24T21:24:35.782Z,7.40
2022-12-24T21:27:04.098Z,6.63
2022-12-24T21:29:32.506Z,6.53
2022-12-24T21:32:01.873Z,8.67
2022-12-24T21:34:29.990Z,6.83
2022-12-24T21:36:58.333Z,7.23
2022-12-24T21:39:26.711Z,7.23
2022-12-24T21:41:55.090Z,6.57
2022-12-24T21:44:23.465Z,6.67
2022-12-24T21:46:51.812Z,7.30
2022-12-24T21:49:39.463Z,5.90
2022-12-24T21:52:07.949Z,6.00
2022-12-24T21:54:35.365Z,6.43
2022-12-24T21:57:22.004Z,5.93
2022-12-24T21:59:51.753Z,5.97
2022-12-24T22:02:20.943Z,6.33
2022-12-24T22:04:50.934Z,6.07
2022-12-24T22:07:40.688Z,6.87
2022-12-24T22:10:27.368Z,7.30
2022-12-24T22:12:56.109Z,6.30
2022-12-24T22:15:24.637Z,7.00
2022-12-24T22:17:53.002Z,6.87
2022-12-24T22:20:22.656Z,7.73
2022-12-24T22:22:51.331Z,6.70
2022-12-24T22:25:19.714Z,6.30
2022-12-24T22:27:48.050Z,6.83
2022-12-24T22:30:16.578Z,7.30
2022-12-24T22:32:45.011Z,6.57
2022-12-24T22:35:13.330Z,6.37
2022-12-24T22:37:43.171Z,6.80
2022-12-24T22:40:12.333Z,6.50
2022-12-24T22:42:41.291Z,7.50
2022-12-24T22:45:10.430Z,6.40
2022-12-24T22:47:38.907Z,7.23
2022-12-24T22:50:08.165Z,5.97
2022-12-24T22:52:36.618Z,6.47
2022-12-24T22:55:07.227Z,6.27
2022-12-24T22:57:35.722Z,6.00
2022-12-24T23:00:04.147Z,5.40
2022-12-24T23:02:32.614Z,6.00
2022-12-24T23:05:01.132Z,6.07
2022-12-24T23:07:29.469Z,5.90
2022-12-24T23:09:59.478Z,6.37
2022-12-24T23:12:46.818Z,5.57
2022-12-24T23:15:15.184Z,5.60
2022-12-24T23:17:43.509Z,5.97
2022-12-24T23:20:12.230Z,6.50
2022-12-24T23:22:40.544Z,6.13
2022-12-24T23:25:09.334Z,6.13
2022-12-24T23:27:39.015Z,5.80
2022-12-24T23:30:09.467Z,5.57
2022-12-24T23:32:37.894Z,6.20
2022-12-24T23:35:06.489Z,5.43
2022-12-24T23:37:35.517Z,5.10
2022-12-24T23:40:04.049Z,5.63
2022-12-24T23:42:32.393Z,5.83
2022-12-24T23:45:02.112Z,5.30
2022-12-24T23:47:30.516Z,5.90
2022-12-24T23:49:58.861Z,5.53
2022-12-24T23:52:27.214Z,5.90
2022-12-24T23:54:55.580Z,4.83
2022-12-24T23:57:23.990Z,5.20
2022-12-24T23:59:52.378Z,5.47
